Terminal Aerodrome Forecast
Issued by NWS Corpus Christi, TX

Home | Current Version | Previous Version | Text Only | Print | Product List | Glossary On
Versions: 1 2 3 4 5 6 7 8 9 10 11 12 13 14 15 16
000
FTUS44 KCRP 182300
TAFVCT
TAF
KVCT 182337Z 1900/1924 VRB04KT 5SM BR VCSH OVC007
      TEMPO 1900/1904 2SM SHRA BR SCT007 BKN020
     FM190400 10007KT 4SM -SHRA BR BKN007 OVC015 PROB30 1909/1914
      2SM +TSRA BR OVC007CB
     FM192000 34012KT P6SM BKN030=

USA.gov is the U.S. government's official web portal to all federal, state and local government web resources and services.